Hanover, CT (06350)

5:37 AM EDT on September 15, 2014 (GMT -0400)
KCTBALTI2 | Change Station
CLOSE
Current Station
Personal Weather Station
Location: Baltic, CT
Elevation: 187 ft
Nearby Weather Stations

Elev 187 ft 41.62 °N, 72.09 °W | Updated 0 second ago

Clear
Clear
43.7 °F
Feels Like 44 °F
N
0.0
Wind Variable Wind from West
Gusts 0.5 mph

Today
High -- | Low -- °F
--% Chance of Precip.
Yesterday
High -- | Low -- °F
Precip. -- in
6:28 AM 6:57 PM
Waning Gibbous, 57% visible
Pressure 30.23 in
Visibility 10.0 miles
Clouds Few 5000 ft
Windchill 44 °F
Dew Point 40 °F
Humidity 88%
Rainfall 0.00 in
Snow Depth Not available.
UV 0 out of 12
Pollen 2.80 out of 12
Ozone Good
Flu Activity Not available.
METAR KIJD 150852Z AUTO 33003KT 10SM FEW050 07/06 A3023 RMK AO2 SLP237 T00670056 53004

More Conditions Fewer Conditions

Pressure 30.23 in
Visibility 10.0 miles
Clouds Few 5000 ft
Windchill 44 °F
Dew Point 40 °F
Humidity 88%
Rainfall 0.00 in
Snow Depth Not available.
UV 0 out of 12
Pollen 2.80 out of 12
Ozone Good
Flu Activity Not available.
METAR KIJD 150852Z AUTO 33003KT 10SM FEW050 07/06 A3023 RMK AO2 SLP237 T00670056 53004

More Conditions Fewer Conditions

10-Day Weather Forecast

Almanac

Astronomy

Sep. 15, 2014 Rise Set
Actual Time 6:28 AM EDT 6:57 PM EDT
Civil Twilight 6:00 AM EDT 7:25 PM EDT
Nautical Twilight 5:27 AM EDT 7:58 PM EDT
Astronomical Twilight 4:53 AM EDT 8:32 PM EDT
Moon 11:33 PM EDT 1:30 PM EDT
Length of Visible Light 13h 24m
Length of Day
12h 29m
Tomorrow will be 2m 45s shorter.
Waning Gibbous, 57% of the Moon is Illuminated
Today
Waning Gibbous
Sep 15
Last Quarter
Sep 24
New
Oct 1
First Quarter
Oct 8
Full

Today's Extremes

State Highs State Lows

Community

WunderPhotos

Upload Photos

1,753,426 photos uploaded!

Nearby

Air Quality

  Air Quality AQ Index Pollutant
Yesterday Good
OZONE
Current Good
OZONE

Snow Depth

Station Depth Elevation
No new snow has been reported.

Earthquake Activity

City Distance Mag. Time & Date
No recent earthquake activity has been reported nearby.
Minimum magnitude displayed is 2.5.

Coastal Water Temperatures

Place Temperature
New London, CT 68.0 °F
Newport, RI 66.9 °F
Quonset Point, RI 70.0 °F
Conimicut Light, RI 70.0 °F
Providence, RI 69.1 °F

Nearby Weather Stations